WetterOnline ( https://www.wetteronline.de )

Wetter aktuell Berus

Aktuelles Wetter: Berus (367m)

6-stündlich | Neueste Meldungen
Ortszeit Temperatur Wetter
Di, 18.06. 20:00 21.4° C bedeckt
Di, 18.06. 14:00 22.9° C bewölkt
Di, 18.06. 8:00 14.4° C Nebel
Di, 18.06. 2:00 14.9° C wolkig
Mo, 17.06. 20:00 18.7° C wolkig
Mo, 17.06. 14:00 18.5° C bewölkt
Mo, 17.06. 8:00 14.0° C bedeckt
Mo, 17.06. 2:00 13.9° C bedeckt
Ortszeit Temperatur Wetter
Di, 18.06. 21:00 20.5° C bedeckt
Di, 18.06. 20:40 20.7° C bedeckt
Di, 18.06. 20:30 20.6° C bedeckt
Di, 18.06. 20:20 20.6° C bedeckt
Di, 18.06. 20:10 20.9° C bedeckt
Di, 18.06. 20:00 21.4° C bedeckt
Di, 18.06. 19:50 21.4° C bedeckt
Di, 18.06. 19:30 21.6° C bedeckt
Di, 18.06. 19:00 21.8° C bedeckt
Di, 18.06. 18:30 22.1° C wolkig
Di, 18.06. 18:00 22.9° C bewölkt
Ortszeit Relative Feuchte Sichtweite
Di, 18.06. 20:00 77% 55 km
Di, 18.06. 14:00 69% 55 km
Di, 18.06. 8:00 98% 1.0 km
Di, 18.06. 2:00 97% 35 km
Mo, 17.06. 20:00 88% 45 km
Mo, 17.06. 14:00 89% 55 km
Mo, 17.06. 8:00 97% 30 km
Mo, 17.06. 2:00 97% 30 km
Ortszeit Relative Feuchte Sichtweite
Di, 18.06. 21:00 80% 45 km
Di, 18.06. 20:40 79% -
Di, 18.06. 20:30 80% 45 km
Di, 18.06. 20:20 80% -
Di, 18.06. 20:10 77% -
Di, 18.06. 20:00 77% 55 km
Di, 18.06. 19:50 77% -
Di, 18.06. 19:30 77% 50 km
Di, 18.06. 19:00 75% 45 km
Di, 18.06. 18:30 73% 55 km
Di, 18.06. 18:00 69% 45 km
Ortszeit Niederschlagsmenge Niederschlagsart
Di, 18.06. 20:00 0.1 l/m2 in 12 Std. -
Di, 18.06. 14:00 0.1 l/m2 in 6 Std. Regen
Di, 18.06. 8:00 0.1 l/m2 in 12 Std. -
Di, 18.06. 2:00 0.1 l/m2 in 6 Std. Regen
Mo, 17.06. 20:00 5 l/m2 in 12 Std. Regen
Mo, 17.06. 14:00 2 l/m2 in 6 Std. Regen
Mo, 17.06. 8:00 5 l/m2 in 12 Std. Regen
Mo, 17.06. 2:00 0.1 l/m2 in 6 Std. Regen
Ortszeit Niederschlagsmenge Niederschlagsart
Di, 18.06. 21:00 <0.05 l/m2 in 1 Std. Regen
Di, 18.06. 20:40 keine Meldung -
Di, 18.06. 20:30 <0.05 l/m2 in 30 Min Schneeregen
Di, 18.06. 20:20 keine Meldung -
Di, 18.06. 20:10 keine Meldung -
Di, 18.06. 20:00 <0.05 l/m2 in 1 Std. -
Di, 18.06. 19:50 keine Meldung -
Di, 18.06. 19:30 <0.05 l/m2 in 30 Min -
Di, 18.06. 19:00 0.1 l/m2 in 1 Std. -
Di, 18.06. 18:30 0.1 l/m2 in 30 Min -
Di, 18.06. 18:00 0.1 l/m2 in 1 Std. -
Ortszeit Stärke Spitze Richtung
km/h Bft. km/h Grad Sektor
Di, 18.06. 20:00 9 2 39 220° SW
Di, 18.06. 14:00 7 2 18 180° S
Di, 18.06. 8:00 11 2 18 50° NO
Di, 18.06. 2:00 6 1 17 160° S
Mo, 17.06. 20:00 7 2 36 200° S
Mo, 17.06. 14:00 11 2 37 220° SW
Mo, 17.06. 8:00 13 3 28 240° SW
Mo, 17.06. 2:00 11 2 29 220° SW
Ortszeit Stärke Spitze Richtung
km/h Bft. km/h Grad Sektor
Di, 18.06. 21:00 9 2 15 250° W
Di, 18.06. 20:40 7 2 - 250° W
Di, 18.06. 20:30 9 2 15 230° SW
Di, 18.06. 20:20 9 2 - 230° SW
Di, 18.06. 20:10 9 2 - 230° SW
Di, 18.06. 20:00 9 2 20 220° SW
Di, 18.06. 19:50 9 2 - 220° SW
Di, 18.06. 19:30 9 2 20 240° SW
Di, 18.06. 19:00 11 2 28 240° SW
Di, 18.06. 18:30 15 3 28 240° SW
Di, 18.06. 18:00 17 3 39 240° SW
Ortszeit Untergrenze Bedeckung Gattung
total tief tief mittel hoch
Di, 18.06. 20:00 3600 m 8/8 8/8 - - -
Di, 18.06. 14:00 4500 m 7/8 7/8 - - -
Di, 18.06. 8:00 <30 m 8/8 0/8 - - -
Di, 18.06. 2:00 9000 m 7/8 0/8 - - -
Mo, 17.06. 20:00 1230 m 8/8 1/8 - - -
Mo, 17.06. 14:00 540 m 8/8 7/8 - - -
Mo, 17.06. 8:00 180 m 8/8 8/8 - - -
Mo, 17.06. 2:00 210 m 8/8 8/8 - - -
Ortszeit Bedeckungsgrad in Achtel und Wolkenuntergrenze
Di, 18.06. 21:00 7(3300m) 8(4500m) 8(5100m)
Di, 18.06. 20:40 8
Di, 18.06. 20:30 8(3300m) 8(3900m) 8(4500m)
Di, 18.06. 20:20 8(3300m) 8(3900m) 8(4500m)
Di, 18.06. 20:10 8
Di, 18.06. 20:00 7(3600m) 8(4500m)
Di, 18.06. 19:50 7(3600m) 8(4500m)
Di, 18.06. 19:30 8(3900m)
Di, 18.06. 19:00 4(3300m) 4(3900m) 8(4500m)
Di, 18.06. 18:30 1(1290m) 8(3900m) 8(4800m)
Di, 18.06. 18:00 6(1380m) 8(5100m) 8(6000m)
Ortszeit Luftdruck NN (hPa) Tendenz (hPa in 3 Std.)
Di, 18.06. 20:00 1011 - 0,7
Di, 18.06. 14:00 1012 - 0,4
Di, 18.06. 8:00 1014 - 0,3
Di, 18.06. 2:00 1015 0,0
Mo, 17.06. 20:00 1014 + 0,5
Mo, 17.06. 14:00 1014 + 0,4
Mo, 17.06. 8:00 1013 + 1,0
Mo, 17.06. 2:00 1011 + 0,3
Ortszeit Luftdruck NN (hPa) Tendenz (hPa in 3 Std.)
Di, 18.06. 21:00 1011 - 0,7
Di, 18.06. 20:40 1011 keine Meldung
Di, 18.06. 20:30 1011 - 0,7
Di, 18.06. 20:20 1011 keine Meldung
Di, 18.06. 20:10 1011 keine Meldung
Di, 18.06. 20:00 1011 - 0,7
Di, 18.06. 19:50 1011 keine Meldung
Di, 18.06. 19:30 1010 - 0,9
Di, 18.06. 19:00 1011 - 0,2
Di, 18.06. 18:30 1011 - 0,3
Di, 18.06. 18:00 1011 - 0,2
Ortszeit Schneehöhe (cm)
Di, 18.06. 20:00 0
Di, 18.06. 14:00 0
Di, 18.06. 8:00 0
Di, 18.06. 2:00 0
Mo, 17.06. 20:00 0
Mo, 17.06. 14:00 0
Mo, 17.06. 8:00 0
Mo, 17.06. 2:00 0
Ortszeit Schneehöhe (cm)
Di, 18.06. 21:00 0
Di, 18.06. 20:40 -
Di, 18.06. 20:30 0
Di, 18.06. 20:20 0
Di, 18.06. 20:10 -
Di, 18.06. 20:00 0
Di, 18.06. 19:50 0
Di, 18.06. 19:30 0
Di, 18.06. 19:00 0
Di, 18.06. 18:30 0
Di, 18.06. 18:00 0
Link zu dieser Seite / Seite empfehlen

Das Wetter in ...